createdAt,value
2023-04-17T05:03:17.979Z,96151.00
2023-04-17T05:04:18.822Z,96149.00
2023-04-17T05:05:17.643Z,96151.00
2023-04-17T05:06:18.670Z,96155.00
2023-04-17T05:07:17.672Z,96153.00
2023-04-17T05:08:18.711Z,96153.00
2023-04-17T05:09:19.129Z,96155.00
2023-04-17T05:10:18.769Z,96153.00
2023-04-17T05:11:18.780Z,96155.00
2023-04-17T05:12:18.793Z,96155.00
2023-04-17T05:13:18.858Z,96159.00
2023-04-17T05:14:18.893Z,96157.00
2023-04-17T05:15:17.953Z,96155.00
2023-04-17T05:16:19.069Z,96157.00
2023-04-17T05:17:18.060Z,96157.00
2023-04-17T05:18:19.117Z,96157.00
2023-04-17T05:19:19.194Z,96161.00
2023-04-17T05:20:18.218Z,96161.00
2023-04-17T05:21:19.321Z,96159.00
2023-04-17T05:22:18.333Z,96161.00
2023-04-17T05:23:18.389Z,96163.00
2023-04-17T05:24:18.443Z,96161.00
2023-04-17T05:25:18.506Z,96161.00
2023-04-17T05:26:18.531Z,96163.00
2023-04-17T05:27:18.570Z,96163.00
2023-04-17T05:28:19.609Z,96159.00
2023-04-17T05:29:19.645Z,96161.00
2023-04-17T05:30:19.713Z,96159.00
2023-04-17T05:31:19.818Z,96161.00
2023-04-17T05:32:18.903Z,96163.00
2023-04-17T05:33:19.878Z,96163.00
2023-04-17T05:34:19.905Z,96161.00
2023-04-17T05:35:19.976Z,96161.00
2023-04-17T05:36:19.969Z,96163.00
2023-04-17T05:37:19.020Z,96163.00
2023-04-17T05:38:20.016Z,96171.00
2023-04-17T05:39:20.060Z,96179.00
2023-04-17T05:40:20.147Z,96179.00
2023-04-17T05:41:19.175Z,96179.00
2023-04-17T05:42:19.230Z,96179.00
2023-04-17T05:43:20.263Z,96179.00
2023-04-17T05:44:19.304Z,96171.00
2023-04-17T05:45:20.546Z,96179.00
2023-04-17T05:46:19.521Z,96179.00
2023-04-17T05:47:20.478Z,96171.00
2023-04-17T05:48:20.488Z,96171.00
2023-04-17T05:49:20.528Z,96169.00
2023-04-17T05:50:19.564Z,96169.00
2023-04-17T05:51:19.657Z,96169.00
2023-04-17T05:52:19.666Z,96167.00
2023-04-17T05:53:20.736Z,96165.00
2023-04-17T05:54:20.824Z,96165.00
2023-04-17T05:55:21.116Z,96155.00
2023-04-17T05:56:20.861Z,96157.00
2023-04-17T05:59:58.255Z,96159.00
2023-04-17T06:00:59.285Z,96179.00
2023-04-17T06:01:59.528Z,96169.00
2023-04-17T06:02:58.440Z,96169.00
2023-04-17T06:04:00.424Z,96163.00
2023-04-17T06:04:58.526Z,96163.00
2023-04-17T06:05:59.267Z,96165.00
2023-04-17T06:06:59.266Z,96165.00
2023-04-17T06:08:08.243Z,96167.00
2023-04-17T06:08:59.224Z,96167.00
2023-04-17T06:09:58.188Z,96167.00
2023-04-17T06:10:59.190Z,96169.00
2023-04-17T06:11:59.187Z,96171.00
2023-04-17T06:12:58.167Z,96171.00
2023-04-17T06:13:58.179Z,96171.00
2023-04-17T06:14:59.162Z,96179.00
2023-04-17T06:15:59.158Z,96179.00
2023-04-17T06:16:59.175Z,96189.00
2023-04-17T06:17:59.193Z,96187.00
2023-04-17T06:18:59.154Z,96191.00
2023-04-17T06:19:59.126Z,96179.00
2023-04-17T06:20:58.133Z,96183.00
2023-04-17T06:21:59.166Z,96181.00
2023-04-17T06:22:58.128Z,96181.00
2023-04-17T06:23:58.108Z,96181.00
2023-04-17T06:24:59.172Z,96179.00
2023-04-17T06:25:59.346Z,96179.00
2023-04-17T06:26:59.098Z,96181.00
2023-04-17T06:27:59.075Z,96181.00
2023-04-17T06:28:59.076Z,96183.00
2023-04-17T06:29:59.061Z,96183.00
2023-04-17T06:30:59.097Z,96185.00
2023-04-17T06:31:58.061Z,96185.00
2023-04-17T06:32:59.142Z,96185.00
2023-04-17T06:33:58.049Z,96189.00
2023-04-17T06:34:59.847Z,96189.00
2023-04-17T06:35:58.026Z,96187.00
2023-04-17T06:36:59.181Z,96187.00
2023-04-17T06:37:58.005Z,96189.00
2023-04-17T06:38:59.048Z,96189.00
2023-04-17T06:39:58.012Z,96193.00
2023-04-17T06:40:59.027Z,96191.00
2023-04-17T06:41:58.009Z,96189.00
2023-04-17T06:42:59.002Z,96191.00
2023-04-17T06:43:59.018Z,96194.00
2023-04-17T06:44:58.967Z,96193.00
2023-04-17T06:45:58.002Z,96193.00
2023-04-17T06:47:01.050Z,96194.00
2023-04-17T06:47:59.059Z,96198.00
2023-04-17T06:48:58.962Z,96204.00
2023-04-17T06:49:58.964Z,96196.00
2023-04-17T06:50:57.948Z,96206.00
2023-04-17T06:51:57.937Z,96204.00
2023-04-17T06:52:58.923Z,96202.00
2023-04-17T06:53:57.936Z,96202.00
2023-04-17T06:54:57.974Z,96202.00
2023-04-17T06:55:58.993Z,96193.00
2023-04-17T06:56:59.004Z,96191.00
2023-04-17T06:57:58.911Z,96189.00
2023-04-17T06:59:00.374Z,96191.00
2023-04-17T06:59:58.937Z,96189.00
2023-04-17T07:00:57.879Z,96193.00
2023-04-17T07:01:57.997Z,96194.00
2023-04-17T07:02:58.011Z,96194.00
2023-04-17T07:03:58.932Z,96193.00
2023-04-17T07:04:59.082Z,96194.00
2023-04-17T07:05:58.857Z,96202.00
2023-04-17T07:06:58.832Z,96200.00
2023-04-17T07:07:58.819Z,96198.00
2023-04-17T07:08:57.810Z,96198.00
2023-04-17T07:09:57.801Z,96194.00
2023-04-17T07:10:58.831Z,96193.00
2023-04-17T07:11:58.886Z,96194.00
2023-04-17T07:12:57.794Z,96194.00
2023-04-17T07:13:57.778Z,96194.00
2023-04-17T07:14:58.760Z,96196.00
2023-04-17T07:15:58.180Z,96194.00
2023-04-17T07:16:58.831Z,96196.00
2023-04-17T07:17:58.833Z,96198.00
2023-04-17T07:18:58.753Z,96198.00
2023-04-17T07:19:58.749Z,96194.00
2023-04-17T07:20:58.744Z,96196.00
2023-04-17T07:21:58.722Z,96193.00
2023-04-17T07:22:58.713Z,96194.00
2023-04-17T07:23:58.711Z,96194.00
2023-04-17T07:24:58.724Z,96196.00
2023-04-17T07:25:58.700Z,96198.00
2023-04-17T07:26:58.715Z,96194.00
2023-04-17T07:27:58.686Z,96196.00
2023-04-17T07:28:58.677Z,96194.00
2023-04-17T07:29:58.681Z,96194.00
2023-04-17T07:30:58.727Z,96196.00
2023-04-17T07:31:58.890Z,96196.00
2023-04-17T07:32:58.767Z,96194.00
2023-04-17T07:33:57.818Z,96198.00
2023-04-17T07:34:58.699Z,96198.00
2023-04-17T07:35:57.681Z,96198.00
2023-04-17T07:36:58.670Z,96210.00
2023-04-17T07:37:58.620Z,96210.00
2023-04-17T07:38:57.640Z,96210.00
2023-04-17T07:39:58.710Z,96202.00
2023-04-17T07:40:58.666Z,96206.00
2023-04-17T07:41:58.722Z,96204.00
2023-04-17T07:42:58.682Z,96208.00
2023-04-17T07:43:59.190Z,96204.00
2023-04-17T07:44:57.751Z,96206.00
2023-04-17T07:45:57.815Z,96212.00
2023-04-17T07:46:57.868Z,96208.00
2023-04-17T07:47:58.939Z,96212.00
2023-04-17T07:48:57.976Z,96212.00
2023-04-17T07:49:58.984Z,96214.00
2023-04-17T07:50:59.506Z,96206.00
2023-04-17T07:51:59.112Z,96212.00
2023-04-17T07:52:59.120Z,96210.00
2023-04-17T07:53:59.332Z,96218.00
2023-04-17T07:54:58.315Z,96212.00
2023-04-17T07:55:59.332Z,96216.00
2023-04-17T07:56:59.352Z,96218.00
2023-04-17T07:57:59.454Z,96218.00
2023-04-17T07:58:59.548Z,96218.00
2023-04-17T07:59:58.521Z,96220.00
2023-04-17T08:00:59.604Z,96216.00
2023-04-17T08:01:59.771Z,96214.00
2023-04-17T08:02:59.732Z,96212.00
2023-04-17T08:03:59.935Z,96216.00
2023-04-17T08:04:59.732Z,96214.00
2023-04-17T08:05:58.776Z,96218.00
2023-04-17T08:06:58.695Z,96216.00
2023-04-17T08:07:59.743Z,96216.00
2023-04-17T08:09:14.802Z,96216.00
2023-04-17T08:10:17.888Z,96216.00
2023-04-17T08:11:19.021Z,96212.00
2023-04-17T08:12:18.944Z,96218.00
2023-04-17T08:13:18.943Z,96218.00
2023-04-17T08:14:19.055Z,96214.00
2023-04-17T08:15:18.937Z,96216.00
2023-04-17T08:16:18.931Z,96218.00
2023-04-17T08:18:38.570Z,96218.00
2023-04-17T08:19:38.597Z,96220.00
2023-04-17T08:20:39.561Z,96222.00
2023-04-17T08:21:39.671Z,96222.00
2023-04-17T08:22:39.671Z,96220.00
2023-04-17T08:24:58.090Z,96222.00
2023-04-17T08:27:17.059Z,96218.00
2023-04-17T08:28:17.029Z,96222.00
2023-04-17T08:30:36.409Z,96220.00
2023-04-17T08:31:36.229Z,96220.00
2023-04-17T08:32:36.283Z,96220.00
2023-04-17T08:33:37.249Z,96220.00
2023-04-17T08:34:36.190Z,96216.00
2023-04-17T08:35:37.279Z,96218.00
2023-04-17T08:36:37.210Z,96216.00
2023-04-17T08:37:37.205Z,96216.00
2023-04-17T08:38:37.287Z,96216.00
2023-04-17T08:40:55.334Z,96216.00
2023-04-17T08:41:56.381Z,96216.00
2023-04-17T08:42:55.346Z,96214.00
2023-04-17T08:43:55.305Z,96214.00
2023-04-17T08:46:14.551Z,96214.00
2023-04-17T08:47:14.524Z,96214.00
2023-04-17T08:49:33.698Z,96210.00
2023-04-17T08:50:33.644Z,96212.00
2023-04-17T08:51:34.630Z,96220.00
2023-04-17T08:52:34.585Z,96216.00
2023-04-17T08:53:34.624Z,96218.00
2023-04-17T08:54:34.631Z,96216.00
2023-04-17T08:55:33.612Z,96218.00
2023-04-17T08:56:33.617Z,96220.00
2023-04-17T08:57:33.664Z,96214.00
2023-04-17T08:58:33.686Z,96214.00
2023-04-17T08:59:34.675Z,96214.00
2023-04-17T09:00:33.683Z,96214.00
2023-04-17T09:01:33.711Z,96214.00
2023-04-17T09:02:33.690Z,96214.00
2023-04-17T09:03:33.800Z,96214.00
2023-04-17T09:04:34.703Z,96214.00
2023-04-17T09:05:33.672Z,96214.00
2023-04-17T09:06:34.612Z,96214.00
2023-04-17T09:07:34.569Z,96214.00
2023-04-17T09:08:34.622Z,96214.00
2023-04-17T09:09:33.525Z,96216.00
2023-04-17T09:10:34.625Z,96216.00
2023-04-17T09:11:34.545Z,96214.00
2023-04-17T09:12:34.539Z,96214.00
2023-04-17T09:13:34.549Z,96212.00
2023-04-17T09:14:33.489Z,96212.00
2023-04-17T09:15:34.717Z,96214.00
2023-04-17T09:16:34.875Z,96214.00
2023-04-17T09:17:34.578Z,96214.00
2023-04-17T09:18:34.528Z,96214.00
2023-04-17T09:19:35.210Z,96212.00
2023-04-17T09:20:34.572Z,96212.00
2023-04-17T09:21:33.587Z,96214.00
2023-04-17T09:22:34.467Z,96212.00
2023-04-17T09:23:33.530Z,96214.00
2023-04-17T09:24:33.470Z,96214.00
2023-04-17T09:26:52.678Z,96216.00
2023-04-17T09:27:53.602Z,96216.00
2023-04-17T09:28:53.550Z,96214.00
2023-04-17T09:29:52.545Z,96212.00
2023-04-17T09:30:52.603Z,96214.00
2023-04-17T09:31:53.660Z,96212.00
2023-04-17T09:32:53.628Z,96212.00
2023-04-17T09:33:53.683Z,96212.00
2023-04-17T09:34:53.548Z,96212.00
2023-04-17T09:35:53.629Z,96212.00
2023-04-17T09:38:11.808Z,96210.00
2023-04-17T09:40:30.957Z,96214.00
2023-04-17T09:41:31.998Z,96212.00
2023-04-17T09:42:31.888Z,96210.00
2023-04-17T09:43:31.850Z,96208.00
2023-04-17T09:44:30.851Z,96210.00
2023-04-17T09:46:55.240Z,96214.00
2023-04-17T09:47:56.396Z,96212.00
2023-04-17T09:48:56.220Z,96212.00
2023-04-17T09:49:55.196Z,96212.00
2023-04-17T09:50:55.360Z,96214.00
2023-04-17T09:51:55.354Z,96212.00
2023-04-17T09:52:55.382Z,96208.00
2023-04-17T09:53:55.346Z,96210.00
2023-04-17T09:56:14.526Z,96212.00
2023-04-17T09:57:15.505Z,96210.00
2023-04-17T09:58:14.449Z,96210.00
2023-04-17T09:59:15.515Z,96210.00
2023-04-17T10:00:15.537Z,96210.00
2023-04-17T10:01:15.597Z,96206.00
2023-04-17T10:03:37.207Z,96208.00
2023-04-17T10:04:34.614Z,96206.00
2023-04-17T10:05:34.601Z,96206.00
2023-04-17T10:06:33.597Z,96204.00
2023-04-17T10:07:34.638Z,96204.00
2023-04-17T10:08:33.599Z,96202.00
2023-04-17T10:09:34.596Z,96204.00
2023-04-17T10:11:52.783Z,96202.00
2023-04-17T10:12:53.755Z,96200.00
2023-04-17T10:13:52.782Z,96200.00
2023-04-17T10:14:53.745Z,96198.00
2023-04-17T10:15:53.697Z,96200.00
2023-04-17T10:18:12.038Z,96198.00
2023-04-17T10:19:11.966Z,96196.00
2023-04-17T10:20:12.935Z,96196.00
2023-04-17T10:21:27.249Z,96196.00
2023-04-17T10:22:11.920Z,96194.00
2023-04-17T10:23:11.797Z,96194.00
2023-04-17T10:24:12.918Z,96196.00
2023-04-17T10:25:12.836Z,96194.00
2023-04-17T10:26:12.793Z,96191.00
2023-04-17T10:27:12.793Z,96191.00
2023-04-17T10:28:12.777Z,96189.00
2023-04-17T10:29:12.841Z,96187.00
2023-04-17T10:30:12.784Z,96185.00
2023-04-17T10:31:11.794Z,96187.00
2023-04-17T10:32:12.877Z,96183.00
2023-04-17T10:33:11.778Z,96185.00
2023-04-17T10:34:12.953Z,96183.00
2023-04-17T10:35:12.794Z,96179.00
2023-04-17T10:36:13.070Z,96183.00
2023-04-17T10:38:31.045Z,96179.00
2023-04-17T10:39:31.928Z,96179.00
2023-04-17T10:40:31.898Z,96171.00
2023-04-17T10:41:31.933Z,96169.00
2023-04-17T10:42:31.876Z,96169.00
2023-04-17T10:43:30.916Z,96165.00
2023-04-17T10:44:30.859Z,96163.00
2023-04-17T10:45:31.931Z,96165.00
2023-04-17T10:46:31.286Z,96161.00
2023-04-17T10:48:50.036Z,96159.00
2023-04-17T10:49:51.030Z,96157.00
2023-04-17T10:50:51.160Z,96157.00
2023-04-17T10:51:51.075Z,96155.00
2023-04-17T10:52:51.049Z,96153.00
2023-04-17T10:53:50.954Z,96153.00
2023-04-17T10:54:49.946Z,96153.00
2023-04-17T10:55:50.925Z,96153.00
2023-04-17T10:56:50.936Z,96153.00
2023-04-17T10:57:50.936Z,96153.00
2023-04-17T10:58:49.903Z,96151.00
2023-04-17T10:59:50.892Z,96153.00
2023-04-17T11:00:49.904Z,96153.00
2023-04-17T11:01:51.123Z,96153.00
2023-04-17T11:02:50.035Z,96153.00
2023-04-17T11:03:50.943Z,96149.00
2023-04-17T11:04:50.025Z,96153.00
2023-04-17T11:05:50.999Z,96151.00
2023-04-17T11:06:51.063Z,96149.00
2023-04-17T11:09:11.881Z,96141.00
2023-04-17T11:11:43.584Z,96141.00
2023-04-17T11:13:52.545Z,96141.00
2023-04-17T11:14:52.556Z,96139.00
2023-04-17T11:15:53.592Z,96137.00
2023-04-17T11:16:52.649Z,96139.00
2023-04-17T11:17:52.721Z,96139.00
2023-04-17T11:18:53.720Z,96139.00
2023-04-17T11:19:53.691Z,96137.00
2023-04-17T11:20:53.786Z,96137.00
2023-04-17T11:21:53.940Z,96133.00
2023-04-17T11:24:12.091Z,96135.00
2023-04-17T11:25:12.988Z,96135.00
2023-04-17T11:26:12.021Z,96133.00
2023-04-17T11:27:12.998Z,96133.00
2023-04-17T11:29:32.917Z,96130.00
2023-04-17T11:30:32.200Z,96132.00
2023-04-17T11:31:32.194Z,96130.00
2023-04-17T11:32:32.212Z,96130.00
2023-04-17T11:33:32.165Z,96130.00
2023-04-17T11:34:31.446Z,96132.00
2023-04-17T11:35:31.160Z,96132.00
2023-04-17T11:36:32.177Z,96132.00
2023-04-17T11:37:32.148Z,96133.00
2023-04-17T11:39:50.444Z,96132.00
2023-04-17T11:40:51.322Z,96130.00
2023-04-17T11:41:51.402Z,96130.00
2023-04-17T11:42:50.402Z,96128.00
2023-04-17T11:43:51.395Z,96133.00
2023-04-17T11:44:51.344Z,96130.00
2023-04-17T11:45:50.431Z,96130.00
2023-04-17T11:46:50.316Z,96128.00
2023-04-17T11:49:10.045Z,96128.00
2023-04-17T11:50:09.791Z,96126.00
2023-04-17T11:52:29.050Z,96124.00
2023-04-17T11:53:29.007Z,96124.00
2023-04-17T11:54:30.046Z,96122.00
2023-04-17T11:55:30.005Z,96122.00
2023-04-17T11:56:28.999Z,96120.00
2023-04-17T11:57:29.980Z,96120.00
2023-04-17T11:59:48.164Z,96122.00
2023-04-17T12:00:49.147Z,96122.00
2023-04-17T12:01:49.119Z,96120.00
2023-04-17T12:02:48.284Z,96120.00
2023-04-17T12:03:48.287Z,96122.00
2023-04-17T12:04:49.481Z,96124.00
2023-04-17T12:05:49.304Z,96128.00
2023-04-17T12:06:48.140Z,96126.00
2023-04-17T12:07:49.094Z,96126.00
2023-04-17T12:08:48.117Z,96124.00
2023-04-17T12:09:48.087Z,96126.00
2023-04-17T12:10:49.122Z,96126.00
2023-04-17T12:11:48.090Z,96124.00
2023-04-17T12:12:49.048Z,96130.00
2023-04-17T12:13:49.100Z,96132.00
2023-04-17T12:14:48.104Z,96132.00
2023-04-17T12:15:49.187Z,96132.00
2023-04-17T12:16:49.086Z,96133.00
2023-04-17T12:17:49.058Z,96130.00
2023-04-17T12:18:49.061Z,96130.00
2023-04-17T12:19:49.006Z,96132.00
2023-04-17T12:20:48.043Z,96133.00
2023-04-17T12:21:49.072Z,96132.00
2023-04-17T12:22:49.028Z,96132.00
2023-04-17T12:23:49.122Z,96132.00
2023-04-17T12:24:48.983Z,96135.00
2023-04-17T12:25:49.019Z,96132.00
2023-04-17T12:26:49.023Z,96135.00
2023-04-17T12:29:07.369Z,96137.00
2023-04-17T12:30:07.263Z,96137.00
2023-04-17T12:31:08.256Z,96139.00
2023-04-17T12:32:08.261Z,96135.00
2023-04-17T12:33:08.164Z,96137.00
2023-04-17T12:34:08.185Z,96137.00
2023-04-17T12:35:07.147Z,96139.00
2023-04-17T12:36:08.202Z,96141.00
2023-04-17T12:37:07.278Z,96137.00
2023-04-17T12:38:07.123Z,96141.00
2023-04-17T12:39:08.145Z,96143.00
2023-04-17T12:40:08.272Z,96143.00
2023-04-17T12:41:07.221Z,96139.00
2023-04-17T12:42:08.156Z,96141.00
2023-04-17T12:43:08.111Z,96145.00
2023-04-17T12:44:08.111Z,96141.00
2023-04-17T12:45:07.054Z,96141.00
2023-04-17T12:46:08.069Z,96137.00
2023-04-17T12:47:07.024Z,96139.00
2023-04-17T12:48:07.005Z,96143.00
2023-04-17T12:49:07.992Z,96139.00
2023-04-17T12:50:08.032Z,96137.00
2023-04-17T12:51:07.982Z,96139.00
2023-04-17T12:52:08.019Z,96139.00
2023-04-17T12:53:07.990Z,96139.00
2023-04-17T12:54:07.959Z,96141.00
2023-04-17T12:55:07.957Z,96141.00
2023-04-17T12:56:06.987Z,96139.00
2023-04-17T12:57:06.950Z,96139.00
2023-04-17T12:58:06.966Z,96141.00
2023-04-17T12:59:07.926Z,96139.00
2023-04-17T13:00:06.937Z,96139.00
2023-04-17T13:01:07.945Z,96135.00
2023-04-17T13:02:06.969Z,96137.00
2023-04-17T13:03:08.222Z,96135.00
2023-04-17T13:04:08.344Z,96137.00
2023-04-17T13:05:06.934Z,96135.00
2023-04-17T13:06:07.952Z,96137.00
2023-04-17T13:07:06.882Z,96135.00
2023-04-17T13:08:07.858Z,96133.00
2023-04-17T13:09:06.862Z,96133.00
2023-04-17T13:10:07.096Z,96132.00
2023-04-17T13:11:08.047Z,96133.00
2023-04-17T13:12:08.022Z,96132.00
2023-04-17T13:13:07.956Z,96135.00
2023-04-17T13:14:07.968Z,96137.00
2023-04-17T13:15:07.964Z,96133.00
2023-04-17T13:16:08.008Z,96137.00
2023-04-17T13:17:08.051Z,96137.00
2023-04-17T13:18:08.104Z,96132.00
2023-04-17T13:19:08.047Z,96133.00
2023-04-17T13:20:08.133Z,96137.00
2023-04-17T13:21:08.119Z,96137.00
2023-04-17T13:22:07.133Z,96133.00
2023-04-17T13:23:08.187Z,96133.00
2023-04-17T13:24:07.184Z,96133.00
2023-04-17T13:25:08.223Z,96133.00
2023-04-17T13:26:07.258Z,96133.00
2023-04-17T13:27:07.281Z,96132.00
2023-04-17T13:28:08.379Z,96130.00
2023-04-17T13:29:08.387Z,96130.00
2023-04-17T13:30:07.468Z,96126.00
2023-04-17T13:31:07.544Z,96124.00
2023-04-17T13:32:08.555Z,96124.00
2023-04-17T13:33:07.577Z,96124.00
2023-04-17T13:34:08.570Z,96122.00
2023-04-17T13:35:07.560Z,96122.00
2023-04-17T13:36:08.607Z,96124.00
2023-04-17T13:37:08.745Z,96122.00
2023-04-17T13:39:26.735Z,96120.00
2023-04-17T13:40:26.752Z,96122.00
2023-04-17T13:41:26.698Z,96122.00
2023-04-17T13:42:27.713Z,96122.00
2023-04-17T13:43:26.748Z,96124.00
2023-04-17T13:44:27.741Z,96122.00
2023-04-17T13:45:26.767Z,96120.00
2023-04-17T13:46:27.801Z,96116.00
2023-04-17T13:47:27.819Z,96118.00
2023-04-17T13:48:26.808Z,96120.00
2023-04-17T13:49:26.821Z,96120.00
2023-04-17T13:50:27.866Z,96120.00
2023-04-17T13:51:26.848Z,96116.00
2023-04-17T13:52:26.880Z,96114.00
2023-04-17T13:53:27.866Z,96116.00
2023-04-17T13:54:27.904Z,96112.00
2023-04-17T13:55:27.936Z,96110.00
2023-04-17T13:56:27.955Z,96114.00
2023-04-17T13:57:27.997Z,96112.00
2023-04-17T13:58:28.008Z,96110.00
2023-04-17T13:59:27.069Z,96110.00
2023-04-17T14:00:28.069Z,96112.00
2023-04-17T14:01:28.109Z,96108.00
2023-04-17T14:02:28.453Z,96108.00
2023-04-17T14:03:27.311Z,96108.00
2023-04-17T14:04:27.402Z,96108.00
2023-04-17T14:05:27.206Z,96106.00
2023-04-17T14:06:27.202Z,96106.00
2023-04-17T14:07:28.225Z,96110.00
2023-04-17T14:08:28.243Z,96106.00
2023-04-17T14:09:28.224Z,96108.00
2023-04-17T14:10:28.254Z,96108.00
2023-04-17T14:11:27.267Z,96108.00
2023-04-17T14:12:27.298Z,96106.00
2023-04-17T14:13:27.288Z,96106.00
2023-04-17T14:14:27.313Z,96102.00
2023-04-17T14:15:28.432Z,96108.00
2023-04-17T14:16:27.427Z,96106.00
2023-04-17T14:17:28.434Z,96106.00
2023-04-17T14:18:28.380Z,96104.00
2023-04-17T14:19:28.389Z,96106.00
2023-04-17T14:20:27.400Z,96102.00
2023-04-17T14:21:27.412Z,96102.00
2023-04-17T14:22:27.477Z,96100.00
2023-04-17T14:23:28.470Z,96102.00
2023-04-17T14:24:27.491Z,96100.00
2023-04-17T14:25:28.477Z,96100.00
2023-04-17T14:26:28.504Z,96100.00
2023-04-17T14:27:28.539Z,96102.00
2023-04-17T14:28:28.577Z,96100.00
2023-04-17T14:29:28.584Z,96100.00
2023-04-17T14:30:27.570Z,96100.00
2023-04-17T14:31:28.883Z,96094.00
2023-04-17T14:32:28.780Z,96096.00
2023-04-17T14:33:27.666Z,96094.00
2023-04-17T14:34:28.738Z,96094.00
2023-04-17T14:35:28.679Z,96094.00
2023-04-17T14:36:28.673Z,96094.00
2023-04-17T14:37:27.711Z,96094.00
2023-04-17T14:38:28.706Z,96094.00
2023-04-17T14:39:31.333Z,96094.00
2023-04-17T14:40:28.740Z,96096.00
2023-04-17T14:41:28.758Z,96094.00
2023-04-17T14:42:27.726Z,96094.00
2023-04-17T14:43:27.729Z,96094.00
2023-04-17T14:44:28.700Z,96094.00
2023-04-17T14:45:27.688Z,96092.00
2023-04-17T14:46:28.752Z,96092.00
2023-04-17T14:47:30.026Z,96088.00
2023-04-17T14:48:27.699Z,96090.00
2023-04-17T14:49:27.690Z,96088.00
2023-04-17T14:50:27.719Z,96088.00
2023-04-17T14:51:30.424Z,96086.00
2023-04-17T14:52:27.731Z,96088.00
2023-04-17T14:53:27.737Z,96085.00
2023-04-17T14:54:28.753Z,96088.00
2023-04-17T14:55:28.713Z,96086.00
2023-04-17T14:56:27.725Z,96088.00
2023-04-17T14:57:27.769Z,96086.00
2023-04-17T14:58:28.764Z,96085.00
2023-04-17T14:59:28.826Z,96085.00
2023-04-17T15:00:28.699Z,96086.00
2023-04-17T15:01:28.788Z,96085.00
2023-04-17T15:02:28.932Z,96083.00
2023-04-17T15:03:28.905Z,96088.00
2023-04-17T15:04:28.803Z,96085.00
2023-04-17T15:05:28.670Z,96085.00
2023-04-17T15:06:27.675Z,96086.00
2023-04-17T15:07:27.659Z,96086.00
2023-04-17T15:08:27.669Z,96085.00
2023-04-17T15:09:28.676Z,96086.00
2023-04-17T15:10:32.354Z,96085.00
2023-04-17T15:11:28.668Z,96086.00
2023-04-17T15:12:28.614Z,96085.00
2023-04-17T15:13:28.679Z,96083.00
2023-04-17T15:14:27.650Z,96081.00
2023-04-17T15:15:28.616Z,96081.00
2023-04-17T15:16:27.655Z,96081.00
2023-04-17T15:17:27.726Z,96085.00
2023-04-17T15:18:27.665Z,96083.00
2023-04-17T15:20:46.936Z,96083.00
2023-04-17T15:21:47.742Z,96079.00
2023-04-17T15:22:47.745Z,96081.00
2023-04-17T15:23:46.743Z,96079.00
2023-04-17T15:24:47.713Z,96081.00
2023-04-17T15:25:46.781Z,96077.00
2023-04-17T15:26:46.814Z,96079.00
2023-04-17T15:27:47.800Z,96079.00
2023-04-17T15:28:46.761Z,96075.00
2023-04-17T15:29:46.789Z,96079.00
